createdAt,value
2019-03-08T00:00:41.362Z,71.90
2019-03-08T00:03:08.789Z,72.20
2019-03-08T00:05:36.194Z,72.10
2019-03-08T00:08:03.626Z,73.40
2019-03-08T00:10:31.061Z,74.60
2019-03-08T00:12:58.513Z,74.50
2019-03-08T00:15:25.937Z,74.30
2019-03-08T00:17:54.039Z,73.40
2019-03-08T00:20:21.499Z,73.60
2019-03-08T00:22:48.919Z,73.30
2019-03-08T00:25:16.317Z,73.70
2019-03-08T00:27:43.710Z,73.60
2019-03-08T00:30:11.431Z,73.40
2019-03-08T00:32:39.231Z,73.40
2019-03-08T00:35:06.675Z,74.20
2019-03-08T00:37:34.100Z,74.80
2019-03-08T00:40:01.424Z,73.70
2019-03-08T00:42:28.802Z,73.40
2019-03-08T00:44:56.265Z,72.90
2019-03-08T00:47:23.640Z,72.70
2019-03-08T00:49:51.243Z,71.80
2019-03-08T00:52:18.640Z,71.30
2019-03-08T00:54:46.019Z,72.30
2019-03-08T00:57:13.455Z,73.00
2019-03-08T00:59:40.837Z,72.60
2019-03-08T01:02:08.529Z,72.20
2019-03-08T01:04:35.935Z,71.60
2019-03-08T01:07:03.666Z,71.50
2019-03-08T01:09:31.052Z,71.40
2019-03-08T01:11:58.452Z,71.00
2019-03-08T01:14:25.880Z,71.80
2019-03-08T01:16:53.295Z,72.30
2019-03-08T01:19:20.717Z,73.10
2019-03-08T01:21:48.135Z,72.40
2019-03-08T01:24:15.522Z,72.30
2019-03-08T01:26:42.946Z,71.80
2019-03-08T01:29:10.328Z,71.90
2019-03-08T01:31:37.760Z,71.60
2019-03-08T01:34:05.275Z,71.40
2019-03-08T01:36:33.068Z,70.90
2019-03-08T01:39:00.632Z,71.20
2019-03-08T01:41:28.068Z,71.60
2019-03-08T01:43:55.461Z,71.90
2019-03-08T01:46:22.841Z,72.00
2019-03-08T01:48:50.445Z,72.00
2019-03-08T01:51:17.814Z,71.90
2019-03-08T01:53:45.205Z,72.60
2019-03-08T01:56:12.596Z,72.20
2019-03-08T01:58:39.998Z,72.10
2019-03-08T02:01:07.391Z,72.40
2019-03-08T02:03:34.817Z,72.70
2019-03-08T02:06:02.122Z,73.00
2019-03-08T02:08:29.553Z,73.10
2019-03-08T02:10:57.166Z,72.80
2019-03-08T02:13:24.576Z,73.00
2019-03-08T02:15:51.997Z,72.50
2019-03-08T02:18:19.331Z,72.60
2019-03-08T02:20:46.735Z,72.80
2019-03-08T02:23:14.113Z,72.80
2019-03-08T02:25:41.495Z,72.60
2019-03-08T02:28:09.007Z,72.70
2019-03-08T02:30:36.722Z,72.30
2019-03-08T02:33:04.149Z,72.30
2019-03-08T02:35:31.537Z,73.10
2019-03-08T02:37:58.911Z,72.70
2019-03-08T02:40:33.275Z,72.00
2019-03-08T02:43:01.353Z,72.00
2019-03-08T02:45:28.775Z,71.90
2019-03-08T02:47:56.158Z,72.50
2019-03-08T02:50:23.857Z,73.00
2019-03-08T02:52:51.235Z,72.70
2019-03-08T02:55:18.630Z,72.10
2019-03-08T02:57:46.439Z,72.00
2019-03-08T03:00:14.053Z,72.60
2019-03-08T03:02:41.345Z,72.60
2019-03-08T03:05:08.739Z,72.50
2019-03-08T03:07:36.563Z,72.70
2019-03-08T03:10:04.093Z,72.90
2019-03-08T03:12:31.498Z,73.10
2019-03-08T03:14:58.876Z,72.70
2019-03-08T03:17:26.275Z,72.80
2019-03-08T03:19:53.681Z,72.80
2019-03-08T03:22:21.047Z,72.10
2019-03-08T03:24:48.907Z,72.30
2019-03-08T03:27:16.289Z,72.60
2019-03-08T03:29:43.971Z,72.80
2019-03-08T03:32:11.363Z,73.20
2019-03-08T03:34:38.775Z,73.30
2019-03-08T03:37:06.168Z,73.60
2019-03-08T03:39:33.549Z,73.30
2019-03-08T03:42:00.955Z,73.30
2019-03-08T03:44:28.339Z,73.60
2019-03-08T03:46:56.040Z,73.50
2019-03-08T03:49:23.421Z,73.50
2019-03-08T03:51:50.739Z,74.20
2019-03-08T03:54:18.417Z,74.30
2019-03-08T03:56:45.824Z,74.70
2019-03-08T03:59:13.218Z,74.50
2019-03-08T04:01:43.609Z,74.30
2019-03-08T04:04:11.007Z,74.40
2019-03-08T04:06:38.414Z,74.30
2019-03-08T04:09:10.718Z,74.40
2019-03-08T04:11:38.220Z,74.40
2019-03-08T04:14:05.614Z,74.50
2019-03-08T04:16:33.067Z,74.60
2019-03-08T04:19:00.443Z,75.60
2019-03-08T04:21:27.873Z,76.10
2019-03-08T04:23:55.281Z,76.00
2019-03-08T04:26:22.665Z,76.00
2019-03-08T04:28:50.077Z,76.90
2019-03-08T04:31:17.467Z,76.30
2019-03-08T04:33:45.310Z,76.00
2019-03-08T04:36:12.723Z,75.60
2019-03-08T04:38:40.129Z,75.10
2019-03-08T04:41:07.514Z,74.50
2019-03-08T04:43:34.921Z,74.50
2019-03-08T04:46:02.321Z,74.40
2019-03-08T04:48:29.701Z,74.40
2019-03-08T04:50:57.204Z,74.90
2019-03-08T04:53:24.973Z,75.30
2019-03-08T04:55:52.345Z,75.90
2019-03-08T04:58:19.879Z,76.00
2019-03-08T05:00:47.551Z,76.20
2019-03-08T05:03:14.937Z,76.20
2019-03-08T05:05:42.321Z,77.10
2019-03-08T05:08:09.727Z,76.70
2019-03-08T05:10:37.117Z,77.70
2019-03-08T05:13:04.550Z,78.10
2019-03-08T05:15:31.917Z,77.80
2019-03-08T05:17:59.351Z,77.80
2019-03-08T05:20:26.759Z,77.90
2019-03-08T05:22:54.352Z,77.60
2019-03-08T05:25:21.777Z,77.30
2019-03-08T05:27:49.224Z,77.60
2019-03-08T05:30:17.723Z,78.30
2019-03-08T05:32:45.140Z,78.80
2019-03-08T05:35:13.178Z,78.80
2019-03-08T05:37:40.599Z,78.40
2019-03-08T05:40:08.245Z,78.10
2019-03-08T05:42:35.641Z,78.10
2019-03-08T05:45:03.410Z,77.20
2019-03-08T05:47:30.807Z,77.10
2019-03-08T05:49:58.195Z,77.20
2019-03-08T05:52:25.595Z,76.90
2019-03-08T05:54:53.010Z,76.60
2019-03-08T05:57:20.612Z,76.60
2019-03-08T05:59:48.058Z,76.90
2019-03-08T06:02:15.434Z,77.40
2019-03-08T06:04:43.172Z,78.60
2019-03-08T06:07:10.558Z,78.20
2019-03-08T06:09:37.974Z,78.60
2019-03-08T06:12:05.749Z,79.20
2019-03-08T06:14:33.236Z,79.10
2019-03-08T06:17:01.003Z,78.20
2019-03-08T06:19:28.471Z,77.90
2019-03-08T06:21:55.905Z,77.80
2019-03-08T06:24:23.450Z,77.90
2019-03-08T06:26:50.848Z,77.50
2019-03-08T06:29:18.303Z,77.70
2019-03-08T06:31:45.671Z,78.50
2019-03-08T06:34:13.411Z,78.70
2019-03-08T06:36:40.811Z,78.50
2019-03-08T06:39:08.199Z,78.10
2019-03-08T06:41:36.032Z,78.50
2019-03-08T06:44:03.433Z,79.20
2019-03-08T06:46:30.832Z,78.80
2019-03-08T06:48:58.538Z,78.90
2019-03-08T06:51:25.938Z,78.90
2019-03-08T06:53:53.658Z,79.00
2019-03-08T06:56:21.073Z,78.40
2019-03-08T06:59:03.214Z,78.20
2019-03-08T07:01:33.896Z,78.50
2019-03-08T07:04:01.426Z,78.40
2019-03-08T07:06:28.796Z,79.40
2019-03-08T07:08:56.091Z,79.50
2019-03-08T07:11:23.526Z,79.40
2019-03-08T07:13:50.935Z,79.30
2019-03-08T07:16:18.745Z,79.80
2019-03-08T07:18:46.152Z,79.30
2019-03-08T07:21:32.022Z,79.30
2019-03-08T07:24:17.840Z,79.00
2019-03-08T07:27:00.191Z,79.40
2019-03-08T07:29:49.863Z,79.30
2019-03-08T07:32:35.966Z,79.60
2019-03-08T07:35:29.522Z,79.80
2019-03-08T07:38:19.007Z,80.40
2019-03-08T07:40:54.022Z,80.20
2019-03-08T07:43:59.073Z,80.00
2019-03-08T07:46:48.741Z,80.20
2019-03-08T07:49:51.009Z,80.60
2019-03-08T07:52:30.351Z,80.20
2019-03-08T07:55:12.519Z,80.20
2019-03-08T07:58:02.230Z,78.80
2019-03-08T08:00:49.350Z,78.60
2019-03-08T08:03:22.735Z,78.30
2019-03-08T08:06:15.989Z,78.10
2019-03-08T08:08:52.185Z,78.30
2019-03-08T08:11:26.784Z,77.60
2019-03-08T08:14:15.624Z,77.70
2019-03-08T08:17:05.108Z,77.20
2019-03-08T08:19:50.616Z,76.40
2019-03-08T08:22:36.364Z,76.40
2019-03-08T08:25:22.686Z,75.50
2019-03-08T08:28:24.870Z,76.00
2019-03-08T08:31:14.605Z,75.40
2019-03-08T08:33:58.571Z,74.40
2019-03-08T08:36:32.342Z,73.50
2019-03-08T08:39:17.853Z,74.20
2019-03-08T08:42:04.752Z,74.10
2019-03-08T08:44:53.130Z,73.90
2019-03-08T08:47:42.682Z,72.30
2019-03-08T08:50:28.151Z,72.80
2019-03-08T08:53:14.195Z,72.60
2019-03-08T08:55:58.858Z,71.90
2019-03-08T08:59:00.582Z,71.70
2019-03-08T09:01:47.808Z,72.00
2019-03-08T09:04:34.727Z,71.00
2019-03-08T09:07:27.476Z,71.50
2019-03-08T09:10:14.433Z,70.50
2019-03-08T09:13:01.383Z,69.50
2019-03-08T09:15:54.068Z,69.30
2019-03-08T09:18:43.841Z,69.20
2019-03-08T09:21:45.818Z,69.30
2019-03-08T09:24:20.025Z,69.00
2019-03-08T09:27:09.793Z,69.80
2019-03-08T09:29:51.567Z,67.60
2019-03-08T09:32:30.803Z,66.20
2019-03-08T09:35:20.505Z,66.50
2019-03-08T09:37:54.687Z,64.90
2019-03-08T09:40:56.994Z,66.10
2019-03-08T09:43:46.423Z,65.90
2019-03-08T09:46:42.373Z,65.20
2019-03-08T09:49:31.124Z,64.70
2019-03-08T09:52:22.313Z,63.90
2019-03-08T09:55:14.902Z,62.20
2019-03-08T09:58:03.237Z,61.70
2019-03-08T10:00:38.600Z,61.90
2019-03-08T10:03:14.691Z,60.90
2019-03-08T10:05:53.447Z,58.20
2019-03-08T10:08:31.781Z,58.60
2019-03-08T10:11:21.398Z,60.80
2019-03-08T10:14:09.174Z,61.50
2019-03-08T10:16:56.175Z,58.90
2019-03-08T10:19:46.047Z,58.00
2019-03-08T10:22:31.905Z,57.20
2019-03-08T10:25:18.864Z,56.80
2019-03-08T10:28:00.429Z,56.60
2019-03-08T10:30:40.914Z,57.20
2019-03-08T10:33:30.615Z,57.80
2019-03-08T10:36:11.921Z,57.90
2019-03-08T10:38:54.536Z,58.90
2019-03-08T10:41:56.281Z,60.10
2019-03-08T10:44:43.325Z,60.40
2019-03-08T10:47:33.027Z,60.80
2019-03-08T10:50:19.263Z,61.90
2019-03-08T10:53:01.902Z,62.40
2019-03-08T10:55:48.800Z,60.80
2019-03-08T10:58:34.089Z,60.10
2019-03-08T11:01:10.592Z,61.40
2019-03-08T11:03:57.921Z,59.60
2019-03-08T11:06:44.947Z,58.30
2019-03-08T11:09:36.132Z,57.90
2019-03-08T11:12:38.401Z,57.30
2019-03-08T11:15:24.221Z,56.60
2019-03-08T11:17:51.686Z,54.00
2019-03-08T11:20:41.776Z,54.60
2019-03-08T11:23:29.071Z,53.00
2019-03-08T11:26:34.319Z,53.00
2019-03-08T11:29:24.054Z,52.60
2019-03-08T11:32:23.151Z,53.40
2019-03-08T11:35:01.673Z,53.20
2019-03-08T11:37:51.795Z,54.10
2019-03-08T11:40:45.063Z,52.20
2019-03-08T11:43:35.043Z,51.00
2019-03-08T11:46:22.374Z,50.40
2019-03-08T11:49:09.613Z,47.20
2019-03-08T11:52:07.297Z,48.50
2019-03-08T11:55:00.131Z,47.90
2019-03-08T11:57:47.337Z,48.30
2019-03-08T12:00:22.704Z,49.00
2019-03-08T12:03:05.200Z,49.80
2019-03-08T12:05:54.688Z,48.00
2019-03-08T12:08:40.436Z,47.40
2019-03-08T12:11:28.207Z,45.60
2019-03-08T12:14:15.156Z,45.10
2019-03-08T12:17:02.520Z,47.10
2019-03-08T12:19:55.534Z,48.50
2019-03-08T12:22:45.259Z,49.20
2019-03-08T12:25:19.186Z,47.30
2019-03-08T12:28:17.883Z,44.50
2019-03-08T12:31:10.595Z,43.10
2019-03-08T12:33:49.322Z,44.00
2019-03-08T12:36:36.381Z,40.30
2019-03-08T12:39:18.900Z,39.60
2019-03-08T12:41:52.676Z,40.00
2019-03-08T12:44:42.739Z,41.80
2019-03-08T12:47:28.468Z,41.40
2019-03-08T12:50:15.821Z,42.40
2019-03-08T12:53:01.339Z,41.60
2019-03-08T12:55:48.254Z,42.30
2019-03-08T12:58:47.090Z,43.90
2019-03-08T13:01:39.855Z,43.10
2019-03-08T13:04:35.878Z,43.50
2019-03-08T13:07:22.653Z,42.50
2019-03-08T13:09:50.061Z,42.40
2019-03-08T13:12:17.951Z,42.20
2019-03-08T13:14:45.370Z,42.00
2019-03-08T13:17:12.810Z,42.70
2019-03-08T13:19:40.316Z,43.60
2019-03-08T13:22:07.743Z,41.30
2019-03-08T13:24:35.155Z,41.20
2019-03-08T13:27:02.616Z,40.00
2019-03-08T13:29:30.026Z,38.30
2019-03-08T13:31:57.444Z,36.70
2019-03-08T13:34:25.056Z,37.10
2019-03-08T13:36:52.512Z,37.30
2019-03-08T13:39:19.965Z,36.00
2019-03-08T13:41:47.393Z,36.70
2019-03-08T13:44:14.795Z,37.20
2019-03-08T13:46:42.238Z,37.40
2019-03-08T13:49:09.842Z,36.90
2019-03-08T13:51:38.056Z,34.60
2019-03-08T13:54:05.509Z,34.40
2019-03-08T13:56:32.927Z,35.70
2019-03-08T13:59:00.707Z,35.10
2019-03-08T14:01:28.134Z,35.30
2019-03-08T14:03:55.598Z,36.00
2019-03-08T14:06:23.067Z,37.30
2019-03-08T14:08:50.425Z,38.30
2019-03-08T14:11:17.870Z,39.10
2019-03-08T14:13:45.660Z,40.70
2019-03-08T14:16:13.060Z,42.00
2019-03-08T14:18:40.502Z,41.70
2019-03-08T14:21:08.021Z,41.90
2019-03-08T14:23:35.811Z,41.70
2019-03-08T14:26:04.362Z,42.00
2019-03-08T14:28:31.830Z,43.30
2019-03-08T14:31:04.591Z,42.60
2019-03-08T14:33:34.378Z,42.40
2019-03-08T14:36:02.957Z,42.10
2019-03-08T14:38:36.486Z,42.30
2019-03-08T14:41:15.685Z,42.40
2019-03-08T14:43:49.078Z,42.30
2019-03-08T14:46:46.985Z,43.30
2019-03-08T14:49:14.434Z,43.80
2019-03-08T14:51:44.725Z,44.30
2019-03-08T14:54:11.128Z,41.10
2019-03-08T14:56:38.951Z,40.60
2019-03-08T14:59:06.377Z,40.00
2019-03-08T15:01:33.794Z,38.50
2019-03-08T15:04:01.645Z,36.20
2019-03-08T15:06:29.614Z,37.10
2019-03-08T15:08:57.291Z,37.40
2019-03-08T15:11:24.997Z,38.30
2019-03-08T15:13:52.404Z,38.90
2019-03-08T15:16:19.820Z,38.70
2019-03-08T15:18:47.604Z,37.70
2019-03-08T15:21:15.050Z,37.20
2019-03-08T15:23:42.511Z,37.40
2019-03-08T15:26:10.328Z,38.10
2019-03-08T15:28:37.750Z,38.80
2019-03-08T15:31:05.168Z,39.20
2019-03-08T15:33:32.613Z,38.90
2019-03-08T15:36:00.395Z,39.40
2019-03-08T15:38:27.844Z,39.40
2019-03-08T15:40:55.696Z,40.00
2019-03-08T15:43:23.181Z,40.40
2019-03-08T15:45:50.603Z,40.70
2019-03-08T15:48:18.025Z,40.90
2019-03-08T15:50:48.367Z,41.80
2019-03-08T15:53:15.799Z,42.50
2019-03-08T15:55:52.434Z,42.40
2019-03-08T15:58:13.202Z,43.00
2019-03-08T16:00:40.910Z,42.10
2019-03-08T16:03:08.412Z,43.00
2019-03-08T16:05:35.841Z,42.70
2019-03-08T16:08:03.952Z,43.30
2019-03-08T16:10:31.437Z,42.70
2019-03-08T16:12:58.921Z,41.90
2019-03-08T16:15:26.350Z,42.10
2019-03-08T16:17:53.776Z,41.60
2019-03-08T16:20:21.328Z,41.10
2019-03-08T16:22:48.755Z,41.40
2019-03-08T16:25:16.574Z,41.50
2019-03-08T16:27:44.310Z,41.50
2019-03-08T16:30:16.230Z,41.50
2019-03-08T16:33:03.497Z,42.00
2019-03-08T16:35:39.778Z,41.60
2019-03-08T16:38:16.167Z,42.20
2019-03-08T16:40:51.507Z,42.20
2019-03-08T16:43:30.874Z,42.00
2019-03-08T16:46:08.875Z,41.70
2019-03-08T16:48:44.120Z,42.70
2019-03-08T16:51:30.344Z,42.80
2019-03-08T16:54:24.331Z,43.00
2019-03-08T16:57:26.607Z,43.10
2019-03-08T17:00:13.598Z,43.70
2019-03-08T17:02:46.956Z,42.20
2019-03-08T17:05:32.915Z,42.20
2019-03-08T17:08:15.383Z,42.80
2019-03-08T17:10:50.650Z,42.40
2019-03-08T17:13:29.508Z,42.80
2019-03-08T17:16:11.287Z,43.10
2019-03-08T17:19:01.159Z,43.20
2019-03-08T17:21:51.064Z,43.10
2019-03-08T17:24:29.213Z,43.60
2019-03-08T17:27:10.419Z,43.70
2019-03-08T17:29:57.386Z,44.10
2019-03-08T17:32:50.922Z,44.40
2019-03-08T17:35:37.043Z,44.00
2019-03-08T17:38:10.091Z,44.30
2019-03-08T17:41:09.307Z,44.70
2019-03-08T17:44:08.305Z,44.60
2019-03-08T17:46:55.282Z,44.00
2019-03-08T17:49:40.873Z,45.00
2019-03-08T17:52:27.613Z,49.60
2019-03-08T17:55:12.296Z,55.10
2019-03-08T17:57:46.825Z,57.80
2019-03-08T18:00:32.577Z,59.70
2019-03-08T18:03:15.007Z,60.80
2019-03-08T18:05:52.539Z,62.70
2019-03-08T18:08:33.925Z,64.60
2019-03-08T18:11:14.289Z,65.10
2019-03-08T18:14:01.265Z,66.00
2019-03-08T18:17:03.311Z,66.60
2019-03-08T18:19:52.510Z,66.50
2019-03-08T18:22:42.547Z,67.60
2019-03-08T18:25:32.587Z,68.30
2019-03-08T18:28:22.600Z,68.60
2019-03-08T18:31:02.499Z,68.10
2019-03-08T18:33:44.061Z,68.50
2019-03-08T18:36:32.193Z,69.30
2019-03-08T18:39:21.957Z,70.00
2019-03-08T18:42:15.893Z,71.10
2019-03-08T18:45:05.922Z,71.20
2019-03-08T18:47:55.927Z,71.50
2019-03-08T18:50:54.943Z,71.20
2019-03-08T18:53:46.201Z,71.10
2019-03-08T18:56:31.925Z,71.30
2019-03-08T18:59:10.345Z,72.30
2019-03-08T19:02:12.948Z,72.90
2019-03-08T19:05:15.255Z,72.60
2019-03-08T19:07:52.709Z,72.50
2019-03-08T19:10:39.068Z,73.10
2019-03-08T19:13:28.854Z,73.30
2019-03-08T19:16:21.604Z,73.70
2019-03-08T19:19:14.374Z,74.00
2019-03-08T19:22:13.554Z,74.30
2019-03-08T19:24:54.724Z,74.90
2019-03-08T19:27:33.597Z,73.90
2019-03-08T19:30:20.368Z,73.70
2019-03-08T19:33:10.366Z,74.10
2019-03-08T19:35:53.214Z,73.80
2019-03-08T19:38:32.267Z,73.80
2019-03-08T19:41:28.773Z,75.10
2019-03-08T19:44:18.985Z,75.50
2019-03-08T19:47:05.970Z,75.20
2019-03-08T19:49:52.959Z,75.50
2019-03-08T19:52:30.202Z,76.10
2019-03-08T19:55:17.262Z,76.20
2019-03-08T19:58:07.427Z,76.30
2019-03-08T20:01:13.713Z,76.50
2019-03-08T20:04:16.076Z,75.50
2019-03-08T20:07:03.098Z,75.70
2019-03-08T20:09:52.916Z,75.10
2019-03-08T20:12:40.312Z,75.40
2019-03-08T20:15:30.825Z,74.90
2019-03-08T20:18:07.607Z,75.20
2019-03-08T20:20:57.667Z,76.30
2019-03-08T20:24:00.235Z,76.50
2019-03-08T20:27:05.463Z,76.00
2019-03-08T20:29:50.811Z,76.60
2019-03-08T20:32:40.766Z,76.80
2019-03-08T20:35:22.127Z,76.50
2019-03-08T20:38:12.389Z,76.50
2019-03-08T20:41:01.782Z,77.00
2019-03-08T20:43:34.483Z,77.20
2019-03-08T20:46:05.916Z,78.50
2019-03-08T20:48:33.406Z,78.90
2019-03-08T20:51:00.895Z,79.00
2019-03-08T20:53:28.514Z,78.40
2019-03-08T20:55:56.397Z,78.20
2019-03-08T20:58:23.925Z,78.00
2019-03-08T21:00:51.418Z,78.10
2019-03-08T21:03:19.322Z,78.20
2019-03-08T21:05:46.801Z,78.30
2019-03-08T21:08:14.346Z,77.20
2019-03-08T21:10:41.816Z,77.20
2019-03-08T21:13:09.291Z,77.50
2019-03-08T21:15:36.783Z,78.20
2019-03-08T21:18:04.268Z,78.10
2019-03-08T21:20:31.715Z,78.90
2019-03-08T21:22:59.537Z,78.90
2019-03-08T21:25:27.287Z,79.00
2019-03-08T21:27:54.728Z,79.70
2019-03-08T21:30:22.189Z,79.30
2019-03-08T21:32:49.659Z,78.40
2019-03-08T21:35:17.090Z,78.80
2019-03-08T21:37:44.913Z,78.80
2019-03-08T21:40:13.587Z,79.40
2019-03-08T21:42:41.796Z,79.30
2019-03-08T21:45:10.316Z,79.20
2019-03-08T21:47:38.625Z,78.70
2019-03-08T21:50:07.723Z,78.40
2019-03-08T21:52:35.233Z,78.90
2019-03-08T21:55:02.764Z,78.30
2019-03-08T21:57:30.189Z,78.60
2019-03-08T21:59:57.693Z,79.00
2019-03-08T22:02:25.176Z,78.70
2019-03-08T22:04:56.585Z,79.40
2019-03-08T22:07:24.066Z,79.30
2019-03-08T22:10:17.375Z,79.30
2019-03-08T22:12:44.808Z,79.70
2019-03-08T22:15:12.482Z,79.20
2019-03-08T22:17:39.930Z,79.90
2019-03-08T22:20:07.686Z,80.00
2019-03-08T22:22:35.135Z,79.70
2019-03-08T22:25:02.686Z,80.00
2019-03-08T22:27:30.103Z,79.50
2019-03-08T22:29:57.654Z,79.70
2019-03-08T22:32:25.141Z,80.60
2019-03-08T22:34:52.615Z,80.60
2019-03-08T22:37:20.157Z,81.40
2019-03-08T22:39:47.655Z,81.50
2019-03-08T22:42:15.086Z,80.70
2019-03-08T22:44:43.210Z,80.70
2019-03-08T22:47:10.527Z,80.20
2019-03-08T22:49:38.003Z,80.20
2019-03-08T22:52:05.459Z,79.50
2019-03-08T22:54:32.907Z,79.70
2019-03-08T22:57:00.369Z,79.70
2019-03-08T22:59:28.178Z,79.30
2019-03-08T23:02:02.960Z,78.70
2019-03-08T23:04:30.742Z,78.60
2019-03-08T23:06:58.214Z,78.70
2019-03-08T23:09:25.627Z,78.60
2019-03-08T23:11:53.493Z,78.20
2019-03-08T23:14:20.904Z,79.10
2019-03-08T23:16:49.000Z,79.00
2019-03-08T23:19:16.450Z,78.50
2019-03-08T23:21:43.905Z,78.20
2019-03-08T23:24:11.314Z,78.60
2019-03-08T23:27:04.402Z,78.80
2019-03-08T23:29:36.439Z,78.20
2019-03-08T23:32:07.869Z,78.00
2019-03-08T23:34:35.300Z,79.00
2019-03-08T23:37:02.854Z,79.10
2019-03-08T23:39:30.256Z,78.80
2019-03-08T23:41:57.689Z,79.50
2019-03-08T23:44:25.116Z,79.70
2019-03-08T23:46:52.561Z,78.40
2019-03-08T23:49:19.963Z,78.10
2019-03-08T23:51:47.375Z,77.90
2019-03-08T23:54:14.753Z,78.30
2019-03-08T23:56:42.180Z,78.70
2019-03-08T23:59:09.610Z,79.20
